Austin, TX (78734)

4:38 AM CST on December 07, 2016 (GMT -0600)
Hurst Creek - SV Ripple | | Change Station

Elev 700 ft 30.38 °N, 97.96 °W | Updated 10 seconds ago

Clear
Clear
46.3 °F
Feels Like 45 °F
N
4.0
Wind Variable Wind from WNW
Gusts 5.0 mph

Today
High -- | Low -- °F
--% Chance of Precip.
Yesterday
High -- | Low -- °F
Precip. -- in
Pressure 30.03 in
Visibility 4.0 miles
Clouds Clear
Windchill 45 °F
Dew Point 45 °F
Humidity 95%
Rainfall 0.00 in
Snow Depth Not available.
7:15 AM 5:31 PM
Waxing Crescent, 51% visible
METAR KRYW 071015Z AUTO 01004KT 4SM BR CLR 05/05 A3003 RMK AO2 T00530048
Pressure 30.03 in
Visibility 4.0 miles
Clouds Clear
Windchill 45 °F
Dew Point 45 °F
Humidity 95%
Rainfall 0.00 in
Snow Depth Not available.
7:15 AM 5:31 PM
Waxing Crescent, 51% visible
METAR KRYW 071015Z AUTO 01004KT 4SM BR CLR 05/05 A3003 RMK AO2 T00530048

10-Day Weather Forecast

Almanac

Astronomy

Dec. 07, 2016 Rise Set
Actual Time
Civil Twilight
Nautical Twilight
Astronomical Twilight
Moon
Length of Visible Light
Length of Day
Tomorrow will be .
, % of the Moon is Illuminated

Today's Extremes

State Highs State Lows

Community

WunderPhotos

Upload Photos

1,956,111 photos uploaded!

WunderBlog® & News

Nearby

Air Quality

  Air Quality AQ Index Pollutant
Not available.

Snow Depth

Station Depth Elevation

Earthquake Activity

City Distance Mag. Time & Date
Minimum magnitude displayed is 2.5.

Coastal Water Temperatures

Place Temperature

Stations

Nearby Weather Stations

Station Location Temp. Windchill Dew Point Humidity Wind Precip. Elev Updated Type
                   

Watches & Warnings

There are currently no watches in effect.